Time;durP1;ratioP1;P1;durP2;ratioP2;P2;SDS_P1;SDS_P2;PMS_P1;PMS_P2;Temp;Humidity;BMP_temperature;BMP_pressure;BME280_temperature;BME280_humidity;BME280_pressure;Samples;Min_cycle;Max_cycle;Signal;HPM_P1;HPM_P2
2023/09/12 00:00:06;;;;;;;27.10;10.83;;;19.80;99.90;;;;;;5097294;28;20477;-79
2023/09/12 00:02:33;;;;;;;28.03;10.93;;;19.70;99.90;;;;;;5095939;28;20490;-83
2023/09/12 00:05:00;;;;;;;26.90;11.10;;;19.70;99.90;;;;;;5096619;28;20442;-83
2023/09/12 00:07:26;;;;;;;25.87;11.13;;;19.70;99.90;;;;;;5095401;28;20447;-81
2023/09/12 00:09:53;;;;;;;27.67;10.47;;;19.60;99.90;;;;;;5095280;28;20460;-78
2023/09/12 00:12:24;;;;;;;28.83;11.40;;;19.50;99.90;;;;;;5094510;28;20468;-81
2023/09/12 00:14:51;;;;;;;28.10;12.50;;;19.40;99.90;;;;;;5094819;28;20447;-80
2023/09/12 00:17:18;;;;;;;19.17;11.67;;;19.20;99.90;;;;;;5095961;28;20465;-83
2023/09/12 00:19:45;;;;;;;21.50;12.00;;;19.10;99.90;;;;;;5099816;28;20481;-85
2023/09/12 00:22:11;;;;;;;30.93;11.73;;;19.10;99.90;;;;;;5099258;28;20471;-79
2023/09/12 00:24:38;;;;;;;24.57;10.30;;;19.00;99.90;;;;;;5095830;28;20410;-81
2023/09/12 00:27:05;;;;;;;29.37;10.40;;;18.90;99.90;;;;;;5095966;28;20424;-81
2023/09/12 00:29:33;;;;;;;21.63;10.03;;;19.00;99.90;;;;;;5095342;28;20439;-81
2023/09/12 00:32:00;;;;;;;27.83;9.20;;;19.00;99.90;;;;;;5084294;28;20472;-81
2023/09/12 00:34:27;;;;;;;25.13;9.67;;;19.00;99.90;;;;;;5093760;28;20481;-79
2023/09/12 00:36:53;;;;;;;18.43;9.27;;;19.10;99.90;;;;;;5087136;28;20466;-80
2023/09/12 00:39:20;;;;;;;31.33;9.77;;;19.10;99.90;;;;;;5095092;28;20451;-81
2023/09/12 00:41:47;;;;;;;17.00;9.80;;;19.30;99.90;;;;;;5086894;28;20463;-81
2023/09/12 00:44:13;;;;;;;24.00;10.50;;;19.40;99.90;;;;;;5094451;28;20451;-81
2023/09/12 00:46:42;;;;;;;20.23;9.30;;;19.20;99.90;;;;;;5094900;28;20440;-83
2023/09/12 00:49:10;;;;;;;24.73;9.90;;;19.20;99.90;;;;;;5088217;28;20482;-81
2023/09/12 00:51:37;;;;;;;17.37;9.70;;;19.30;99.90;;;;;;5094456;28;20502;-79
2023/09/12 00:54:04;;;;;;;19.63;10.60;;;19.20;99.90;;;;;;5094870;28;20455;-80
2023/09/12 00:56:31;;;;;;;25.80;10.33;;;19.20;99.90;;;;;;5095290;28;20994;-78
2023/09/12 00:58:58;;;;;;;20.10;10.27;;;19.20;99.90;;;;;;5095145;28;20432;-81
2023/09/12 01:01:25;;;;;;;24.70;9.97;;;19.20;99.90;;;;;;5095420;28;20463;-80
2023/09/12 01:03:53;;;;;;;22.70;9.83;;;19.20;99.90;;;;;;5095824;28;20487;-79
2023/09/12 01:06:23;;;;;;;16.77;9.27;;;19.20;99.90;;;;;;5094999;28;20529;-83
2023/09/12 01:08:50;;;;;;;18.50;9.40;;;19.30;99.90;;;;;;5095584;28;20474;-80
2023/09/12 01:11:18;;;;;;;24.07;10.47;;;19.10;99.90;;;;;;5086907;28;20461;-82
2023/09/12 01:13:45;;;;;;;20.63;10.30;;;19.10;99.90;;;;;;5087255;28;20444;-83
2023/09/12 01:16:11;;;;;;;31.40;10.97;;;19.00;99.90;;;;;;5094307;28;20470;-78
2023/09/12 01:18:38;;;;;;;22.53;10.73;;;19.00;99.90;;;;;;5093974;28;20451;-78
2023/09/12 01:21:39;;;;;;;30.17;12.37;;;19.00;99.90;;;;;;5085939;28;20451;-80
2023/09/12 01:24:31;;;;;;;27.67;10.70;;;18.90;99.90;;;;;;5093828;28;20499;-80
2023/09/12 01:27:14;;;;;;;23.93;10.97;;;18.90;99.90;;;;;;5094414;28;20432;-80
2023/09/12 01:29:43;;;;;;;26.57;11.50;;;19.00;99.90;;;;;;5094922;28;20521;-81
2023/09/12 01:32:11;;;;;;;22.53;10.93;;;18.80;99.90;;;;;;5093609;28;20467;-81
2023/09/12 01:34:38;;;;;;;21.63;11.53;;;18.70;99.90;;;;;;5092757;28;20444;-80
2023/09/12 01:37:05;;;;;;;22.20;12.00;;;18.70;99.90;;;;;;5084628;28;21028;-80
2023/09/12 01:39:31;;;;;;;31.13;12.87;;;18.70;99.90;;;;;;5090512;28;20512;-80
2023/09/12 01:42:00;;;;;;;24.00;12.10;;;18.70;99.90;;;;;;5090197;28;20455;-80
2023/09/12 01:44:30;;;;;;;24.33;12.27;;;18.70;99.90;;;;;;5090918;28;20470;-79
2023/09/12 01:47:01;;;;;;;40.40;12.20;;;18.70;99.90;;;;;;5082648;28;20477;-79
2023/09/12 01:49:30;;;;;;;31.90;13.47;;;18.70;99.90;;;;;;5090788;28;20451;-81
2023/09/12 01:51:59;;;;;;;25.73;12.47;;;18.70;99.90;;;;;;5085115;28;20451;-80
2023/09/12 01:54:26;;;;;;;27.00;12.90;;;18.70;99.90;;;;;;5089565;28;20455;-79
2023/09/12 01:56:57;;;;;;;23.70;12.17;;;18.70;99.90;;;;;;5086488;28;20463;-79
2023/09/12 01:59:24;;;;;;;26.40;12.73;;;18.60;99.90;;;;;;5089197;28;20500;-79
2023/09/12 02:01:52;;;;;;;21.37;12.00;;;18.60;99.90;;;;;;5085843;28;20488;-81
2023/09/12 02:04:19;;;;;;;26.70;12.27;;;18.60;99.90;;;;;;5092109;28;21034;-80
2023/09/12 02:06:45;;;;;;;23.03;11.83;;;18.60;99.90;;;;;;5092884;28;20412;-80
2023/09/12 02:09:12;;;;;;;33.60;13.40;;;18.60;99.90;;;;;;5092710;28;20448;-81
2023/09/12 02:11:39;;;;;;;25.03;12.67;;;18.60;99.90;;;;;;5092948;28;20472;-80
2023/09/12 02:14:05;;;;;;;17.93;12.30;;;18.50;99.90;;;;;;5086127;28;20456;-81
2023/09/12 02:16:32;;;;;;;21.40;12.30;;;18.50;99.90;;;;;;5091009;28;20443;-80
2023/09/12 02:19:00;;;;;;;28.30;12.70;;;18.50;99.90;;;;;;5092639;28;20465;-79
2023/09/12 02:21:27;;;;;;;24.07;13.10;;;18.50;99.90;;;;;;5093299;28;20439;-80
2023/09/12 02:23:54;;;;;;;27.00;14.10;;;18.50;99.90;;;;;;5094234;28;20511;-80
2023/09/12 02:26:21;;;;;;;27.23;13.83;;;18.50;99.90;;;;;;5093354;28;20482;-81
2023/09/12 02:28:47;;;;;;;24.23;13.23;;;18.60;99.90;;;;;;5092233;28;20485;-81
2023/09/12 02:31:14;;;;;;;33.43;14.20;;;18.60;99.90;;;;;;5092704;28;20471;-80
2023/09/12 02:33:41;;;;;;;28.63;14.17;;;18.40;99.90;;;;;;5093334;28;20469;-82
2023/09/12 02:36:09;;;;;;;25.43;13.40;;;18.40;99.90;;;;;;5093005;28;20448;-79
2023/09/12 02:38:35;;;;;;;29.27;14.43;;;18.40;99.90;;;;;;5093235;28;20442;-81
2023/09/12 02:41:03;;;;;;;26.30;14.13;;;18.40;99.90;;;;;;5093562;28;20943;-79
2023/09/12 02:43:30;;;;;;;27.80;13.00;;;18.50;99.90;;;;;;5084062;28;20467;-80
2023/09/12 02:45:56;;;;;;;31.50;13.93;;;18.20;99.90;;;;;;5092574;28;20438;-78
2023/09/12 02:48:23;;;;;;;22.03;13.03;;;18.30;99.90;;;;;;5093695;28;20448;-82
2023/09/12 02:50:50;;;;;;;18.17;11.77;;;18.10;99.90;;;;;;5093436;28;20435;-81
2023/09/12 02:53:18;;;;;;;27.33;12.97;;;18.10;99.90;;;;;;5093307;28;20451;-79
2023/09/12 02:55:45;;;;;;;22.03;11.70;;;18.00;99.90;;;;;;5089604;28;20415;-83
2023/09/12 02:58:11;;;;;;;26.77;11.47;;;18.00;99.90;;;;;;5087777;28;20440;-79
2023/09/12 03:00:40;;;;;;;26.20;11.20;;;18.00;99.90;;;;;;5091750;28;20450;-81
2023/09/12 03:03:08;;;;;;;21.87;11.47;;;18.00;99.90;;;;;;5093221;28;20498;-80
2023/09/12 03:05:35;;;;;;;22.43;10.57;;;17.90;99.90;;;;;;5091850;28;20452;-79
2023/09/12 03:08:02;;;;;;;19.57;11.03;;;18.00;99.90;;;;;;5092793;28;20426;-82
2023/09/12 03:10:30;;;;;;;25.13;9.93;;;18.00;99.90;;;;;;5092408;28;20951;-79
2023/09/12 03:12:57;;;;;;;23.83;10.77;;;18.00;99.90;;;;;;5083887;28;20472;-80
2023/09/12 03:15:24;;;;;;;18.20;11.60;;;18.00;99.90;;;;;;5092832;28;20436;-79
2023/09/12 03:17:51;;;;;;;20.80;11.80;;;18.00;99.90;;;;;;5091864;28;20455;-81
2023/09/12 03:20:17;;;;;;;19.63;12.03;;;18.10;99.90;;;;;;5083549;28;20456;-79
2023/09/12 03:22:45;;;;;;;27.93;12.77;;;17.90;99.90;;;;;;5092250;28;20506;-79
2023/09/12 03:25:11;;;;;;;26.10;13.50;;;18.00;99.90;;;;;;5083176;28;20456;-81
2023/09/12 03:27:39;;;;;;;23.70;13.47;;;18.00;99.90;;;;;;5092991;28;20435;-81
2023/09/12 03:30:07;;;;;;;21.87;12.97;;;17.90;99.90;;;;;;5093179;28;20439;-81
2023/09/12 03:32:34;;;;;;;25.40;12.93;;;18.00;99.90;;;;;;5093470;28;20476;-83
2023/09/12 03:35:01;;;;;;;27.10;12.80;;;17.90;99.90;;;;;;5096213;28;20458;-84
2023/09/12 03:37:28;;;;;;;25.13;13.00;;;17.90;99.90;;;;;;5095861;28;20440;-83
2023/09/12 03:39:55;;;;;;;20.17;12.70;;;17.90;99.90;;;;;;5092955;28;20474;-80
2023/09/12 03:42:21;;;;;;;37.50;14.00;;;18.00;99.90;;;;;;5092815;28;20438;-82
2023/09/12 03:44:49;;;;;;;26.90;13.37;;;17.90;99.90;;;;;;5092267;28;20475;-81
2023/09/12 03:47:16;;;;;;;17.17;11.83;;;17.90;99.90;;;;;;5092818;28;20443;-79
2023/09/12 03:49:43;;;;;;;28.77;13.30;;;17.90;99.90;;;;;;5092852;28;20490;-82
2023/09/12 03:52:09;;;;;;;28.90;12.90;;;17.90;99.90;;;;;;5093264;28;20532;-80
2023/09/12 03:54:36;;;;;;;21.70;12.33;;;18.00;99.90;;;;;;5092303;28;20465;-79
2023/09/12 03:57:03;;;;;;;22.00;12.33;;;17.80;99.90;;;;;;5085476;28;20531;-81
2023/09/12 03:59:30;;;;;;;23.20;13.37;;;17.90;99.90;;;;;;5089615;28;20474;-79
2023/09/12 04:01:58;;;;;;;29.40;13.90;;;17.90;99.90;;;;;;5092617;28;20471;-79
2023/09/12 04:04:25;;;;;;;25.27;12.20;;;17.90;99.90;;;;;;5092316;28;20491;-79
2023/09/12 04:06:51;;;;;;;25.93;13.60;;;18.00;99.90;;;;;;5092691;28;20422;-82
2023/09/12 04:09:18;;;;;;;26.93;12.37;;;17.90;99.90;;;;;;5084574;28;20436;-81
2023/09/12 04:11:45;;;;;;;24.20;12.50;;;18.00;99.90;;;;;;5092612;28;20447;-80
2023/09/12 04:14:11;;;;;;;24.17;12.63;;;18.00;99.90;;;;;;5092114;28;20422;-80
2023/09/12 04:16:38;;;;;;;29.60;13.30;;;18.00;99.90;;;;;;5092100;28;20439;-82
2023/09/12 04:19:06;;;;;;;30.30;12.70;;;18.00;99.90;;;;;;5094390;28;20444;-85
2023/09/12 04:21:33;;;;;;;30.77;12.20;;;18.00;99.90;;;;;;5096113;28;20437;-80
2023/09/12 04:23:59;;;;;;;26.90;11.80;;;18.00;99.90;;;;;;5096000;28;20458;-79
2023/09/12 04:26:26;;;;;;;28.23;12.40;;;18.00;99.90;;;;;;5087488;28;20435;-81
2023/09/12 04:28:53;;;;;;;25.63;11.70;;;18.00;99.90;;;;;;5095718;28;20451;-80
2023/09/12 04:31:20;;;;;;;28.47;13.27;;;18.10;99.90;;;;;;5095668;28;20476;-83
2023/09/12 04:33:46;;;;;;;24.60;13.13;;;18.10;99.90;;;;;;5086983;28;20436;-80
2023/09/12 04:36:14;;;;;;;26.80;12.70;;;18.10;99.90;;;;;;5094699;28;20438;-81
2023/09/12 04:38:41;;;;;;;26.73;13.33;;;18.10;99.90;;;;;;5095852;28;20456;-81
2023/09/12 04:41:08;;;;;;;23.90;12.93;;;18.10;99.90;;;;;;5095381;28;20498;-81
2023/09/12 04:43:35;;;;;;;26.37;13.60;;;18.20;99.90;;;;;;5095465;28;20486;-80
2023/09/12 04:46:02;;;;;;;32.17;13.80;;;18.20;99.90;;;;;;5089354;28;21003;-83
2023/09/12 04:48:28;;;;;;;30.77;14.37;;;18.20;99.90;;;;;;5092404;28;20474;-82
2023/09/12 04:50:56;;;;;;;22.83;13.47;;;18.20;99.90;;;;;;5089281;28;20454;-79
2023/09/12 04:53:24;;;;;;;31.63;14.87;;;18.20;99.90;;;;;;5094948;28;20485;-79
2023/09/12 04:55:53;;;;;;;30.30;15.10;;;18.20;99.90;;;;;;5095966;28;20443;-80
2023/09/12 04:58:19;;;;;;;26.53;14.60;;;18.30;99.90;;;;;;5096202;28;20416;-82
2023/09/12 05:00:46;;;;;;;28.77;14.70;;;18.20;99.90;;;;;;5096035;28;20482;-81
2023/09/12 05:03:13;;;;;;;22.03;14.80;;;18.30;99.90;;;;;;5096739;28;20483;-79
2023/09/12 05:05:40;;;;;;;37.37;14.80;;;18.30;99.90;;;;;;5096090;28;20452;-80
2023/09/12 05:08:06;;;;;;;28.37;14.50;;;18.30;99.90;;;;;;5096259;28;20422;-80
2023/09/12 05:10:34;;;;;;;35.93;16.20;;;18.30;99.90;;;;;;5087378;28;20432;-81
2023/09/12 05:13:01;;;;;;;32.83;14.13;;;18.30;99.90;;;;;;5095541;28;20476;-83
2023/09/12 05:15:28;;;;;;;27.37;14.97;;;18.30;99.90;;;;;;5087471;28;20453;-80
2023/09/12 05:17:54;;;;;;;29.63;14.30;;;18.30;99.90;;;;;;5095404;28;20447;-79
2023/09/12 05:20:21;;;;;;;31.40;14.57;;;18.50;99.90;;;;;;5095632;28;20456;-81
2023/09/12 05:22:48;;;;;;;24.97;13.80;;;18.40;99.90;;;;;;5083002;28;20459;-77
2023/09/12 05:25:14;;;;;;;26.07;14.53;;;18.40;99.90;;;;;;5075967;28;20563;-77
2023/09/12 05:27:42;;;;;;;34.33;14.80;;;18.40;99.90;;;;;;5076539;28;20459;-77
2023/09/12 05:30:10;;;;;;;31.70;15.60;;;18.40;99.90;;;;;;5076713;28;20509;-77
2023/09/12 05:32:37;;;;;;;35.60;15.00;;;18.40;99.90;;;;;;5076169;28;20533;-78
2023/09/12 05:35:04;;;;;;;25.60;14.50;;;18.40;99.90;;;;;;5076560;28;20538;-77
2023/09/12 05:37:31;;;;;;;33.23;15.43;;;18.30;99.90;;;;;;5076430;28;20448;-78
2023/09/12 05:39:57;;;;;;;32.53;14.03;;;18.30;99.90;;;;;;5075959;28;20517;-77
2023/09/12 05:42:24;;;;;;;35.40;14.47;;;18.20;99.90;;;;;;5075619;28;20484;-79
2023/09/12 05:44:53;;;;;;;31.53;14.47;;;18.30;99.90;;;;;;5076850;28;20564;-79
2023/09/12 05:47:20;;;;;;;24.27;13.20;;;18.30;99.90;;;;;;5076218;28;20485;-78
2023/09/12 05:49:46;;;;;;;36.23;16.23;;;18.30;99.90;;;;;;5075986;28;20447;-77
2023/09/12 05:52:13;;;;;;;35.23;15.23;;;18.30;99.90;;;;;;5076970;28;20472;-78
2023/09/12 05:54:41;;;;;;;23.63;14.20;;;18.30;99.90;;;;;;5075805;28;20463;-77
2023/09/12 05:57:07;;;;;;;32.97;15.03;;;18.40;99.90;;;;;;5075140;28;20539;-77
2023/09/12 05:59:36;;;;;;;38.93;15.20;;;18.40;99.90;;;;;;5081503;28;20455;-78
2023/09/12 06:02:05;;;;;;;29.57;15.00;;;18.50;99.90;;;;;;5072697;28;20475;-78
2023/09/12 06:04:32;;;;;;;30.07;15.43;;;18.50;99.90;;;;;;5094415;28;20514;-81
2023/09/12 06:06:59;;;;;;;32.00;15.07;;;18.50;99.90;;;;;;5092970;28;20467;-79
2023/09/12 06:09:26;;;;;;;29.80;16.70;;;18.60;99.90;;;;;;5090325;28;20443;-79
2023/09/12 06:11:52;;;;;;;26.60;15.20;;;18.70;99.90;;;;;;5094330;28;20479;-80
2023/09/12 06:14:19;;;;;;;27.30;15.23;;;18.80;99.90;;;;;;5094751;28;20451;-78
2023/09/12 06:16:46;;;;;;;25.40;14.30;;;19.10;99.90;;;;;;5094895;28;20448;-79
2023/09/12 06:19:15;;;;;;;26.43;13.77;;;19.20;99.90;;;;;;5093243;28;20456;-80
2023/09/12 06:21:42;;;;;;;32.33;14.87;;;19.20;99.90;;;;;;5094303;28;20475;-80
2023/09/12 06:24:11;;;;;;;24.10;13.93;;;19.40;99.90;;;;;;5094377;28;20463;-79
2023/09/12 06:26:39;;;;;;;26.07;14.53;;;19.20;99.90;;;;;;5094648;28;20482;-79
2023/09/12 06:29:06;;;;;;;26.70;13.10;;;19.30;99.90;;;;;;5094447;28;21073;-82
2023/09/12 06:31:33;;;;;;;30.10;14.00;;;19.30;99.90;;;;;;5094319;28;20479;-81
2023/09/12 06:34:00;;;;;;;35.83;14.80;;;19.40;99.90;;;;;;5094581;28;20474;-81
2023/09/12 06:36:29;;;;;;;25.83;12.97;;;19.40;99.90;;;;;;5094502;28;20440;-81
2023/09/12 06:38:56;;;;;;;35.70;13.17;;;19.60;99.90;;;;;;5094930;28;20444;-81
2023/09/12 06:41:23;;;;;;;31.17;13.70;;;19.80;99.90;;;;;;5094376;28;20539;-80
2023/09/12 06:43:49;;;;;;;21.33;13.10;;;20.00;99.90;;;;;;5094037;28;20467;-80
2023/09/12 06:46:17;;;;;;;23.70;13.20;;;20.00;99.90;;;;;;5093327;28;20459;-81
2023/09/12 06:48:44;;;;;;;29.83;13.47;;;20.20;99.90;;;;;;5093571;28;20481;-80
2023/09/12 06:51:11;;;;;;;23.10;12.80;;;20.00;99.90;;;;;;5093922;28;20470;-80
2023/09/12 06:53:39;;;;;;;21.20;12.00;;;20.20;99.90;;;;;;5094400;28;20451;-79
2023/09/12 06:56:06;;;;;;;25.00;11.97;;;20.40;99.90;;;;;;5094795;28;20454;-79
2023/09/12 06:58:33;;;;;;;39.37;13.07;;;20.50;99.90;;;;;;5094027;28;20436;-81
2023/09/12 07:01:03;;;;;;;32.97;12.33;;;20.50;99.90;;;;;;5094161;28;20475;-80
2023/09/12 07:03:30;;;;;;;28.73;13.70;;;20.60;99.90;;;;;;5094384;28;20447;-80
2023/09/12 07:05:57;;;;;;;28.80;11.83;;;20.80;99.90;;;;;;5094051;28;20518;-81
2023/09/12 07:08:24;;;;;;;28.93;12.77;;;20.80;99.90;;;;;;5085581;28;20444;-80
2023/09/12 07:10:54;;;;;;;30.23;12.47;;;20.80;99.90;;;;;;5093491;28;20438;-80
2023/09/12 07:13:21;;;;;;;23.00;12.57;;;20.90;99.90;;;;;;5094263;28;20432;-80
2023/09/12 07:15:48;;;;;;;20.20;11.23;;;20.90;99.90;;;;;;5093814;28;20435;-82
2023/09/12 07:18:14;;;;;;;22.47;11.50;;;20.90;99.90;;;;;;5093849;28;20452;-80
2023/09/12 07:20:41;;;;;;;26.67;12.63;;;20.90;99.90;;;;;;5092800;28;20444;-80
2023/09/12 07:23:08;;;;;;;20.00;12.40;;;21.00;99.90;;;;;;5093974;28;20435;-80
2023/09/12 07:25:39;;;;;;;25.50;13.00;;;21.00;99.90;;;;;;5093442;28;20565;-80
2023/09/12 07:28:07;;;;;;;31.37;12.43;;;21.20;99.90;;;;;;5093583;28;20443;-81
2023/09/12 07:30:34;;;;;;;23.00;12.60;;;21.00;99.90;;;;;;5093809;28;20443;-82
2023/09/12 07:33:01;;;;;;;28.47;13.23;;;21.00;99.90;;;;;;5093171;28;20459;-79
2023/09/12 07:35:27;;;;;;;32.63;13.20;;;21.20;99.90;;;;;;5092353;28;20455;-79
2023/09/12 07:37:54;;;;;;;28.03;12.77;;;21.40;99.90;;;;;;5091751;28;20455;-81
2023/09/12 07:40:21;;;;;;;29.17;13.80;;;21.60;99.90;;;;;;5091993;28;20440;-81
2023/09/12 07:42:47;;;;;;;26.30;12.60;;;21.60;99.90;;;;;;5091375;28;20467;-79
2023/09/12 07:45:15;;;;;;;26.17;13.00;;;21.90;99.90;;;;;;5093024;28;20476;-79
2023/09/12 07:47:42;;;;;;;26.23;12.50;;;21.60;99.90;;;;;;5093096;28;20469;-79
2023/09/12 07:50:09;;;;;;;26.63;13.27;;;21.70;99.90;;;;;;5092562;28;20461;-81
2023/09/12 07:52:36;;;;;;;25.83;12.63;;;22.10;99.90;;;;;;5091314;28;20551;-79
2023/09/12 07:55:03;;;;;;;26.37;10.80;;;22.60;99.90;;;;;;5087653;28;20439;-80
2023/09/12 07:57:31;;;;;;;21.63;11.20;;;23.20;99.90;;;;;;5094077;28;20450;-81
2023/09/12 07:59:57;;;;;;;26.80;11.20;;;23.70;99.90;;;;;;5094186;28;20447;-80
2023/09/12 08:02:25;;;;;;;21.83;10.73;;;24.30;99.90;;;;;;5095426;28;20479;-79
2023/09/12 08:04:53;;;;;;;23.80;11.10;;;24.60;99.90;;;;;;5096200;28;21047;-81
2023/09/12 08:07:20;;;;;;;25.33;9.90;;;24.80;99.90;;;;;;5097116;28;20455;-81
2023/09/12 08:09:51;;;;;;;24.03;10.67;;;25.10;99.90;;;;;;5097575;28;20459;-82
2023/09/12 08:12:18;;;;;;;24.83;9.87;;;25.50;99.90;;;;;;5096686;28;20452;-80
2023/09/12 08:14:45;;;;;;;18.93;9.13;;;25.80;99.90;;;;;;5097390;28;20443;-81
2023/09/12 08:17:12;;;;;;;21.80;9.30;;;26.10;99.90;;;;;;5094445;28;20447;-79
2023/09/12 08:19:40;;;;;;;20.93;9.30;;;26.20;99.90;;;;;;5096712;28;20444;-80
2023/09/12 08:22:08;;;;;;;20.73;8.70;;;26.40;99.90;;;;;;5096376;28;20485;-82
2023/09/12 08:24:34;;;;;;;24.80;8.80;;;26.70;99.90;;;;;;5096128;28;20487;-80
2023/09/12 08:27:01;;;;;;;17.80;8.50;;;27.00;99.90;;;;;;5095261;28;20444;-80
2023/09/12 08:29:29;;;;;;;23.70;9.37;;;27.20;99.90;;;;;;5097645;28;20443;-82
2023/09/12 08:31:56;;;;;;;19.37;8.73;;;27.60;99.90;;;;;;5096955;28;20462;-83
2023/09/12 08:34:23;;;;;;;20.73;7.80;;;27.80;99.90;;;;;;5095618;28;20443;-81
2023/09/12 08:36:51;;;;;;;24.50;8.10;;;28.00;99.90;;;;;;5096591;28;20439;-82
2023/09/12 08:39:23;;;;;;;16.50;7.80;;;28.10;99.90;;;;;;5095370;28;20459;-80
2023/09/12 08:41:50;;;;;;;21.10;8.07;;;28.20;99.90;;;;;;5096400;28;20464;-82
2023/09/12 08:44:17;;;;;;;24.00;8.70;;;28.30;99.90;;;;;;5096138;28;20443;-80
2023/09/12 08:46:45;;;;;;;17.97;8.23;;;28.20;99.90;;;;;;5094453;28;20462;-82
2023/09/12 08:49:12;;;;;;;20.50;8.40;;;28.20;99.90;;;;;;5095070;28;20427;-81
2023/09/12 08:51:39;;;;;;;23.30;7.60;;;28.20;99.90;;;;;;5094729;28;20472;-82
2023/09/12 08:54:09;;;;;;;13.77;7.70;;;28.30;99.90;;;;;;5096795;28;20454;-82
2023/09/12 08:56:37;;;;;;;17.07;6.67;;;28.40;99.90;;;;;;5096939;28;20432;-83
2023/09/12 08:59:05;;;;;;;27.87;8.20;;;28.60;99.90;;;;;;5097241;28;20482;-81
2023/09/12 09:01:32;;;;;;;24.20;8.00;;;28.60;99.90;;;;;;5097228;28;20463;-80
2023/09/12 09:03:59;;;;;;;25.67;7.73;;;28.70;99.90;;;;;;5094537;28;20455;-81
2023/09/12 09:06:27;;;;;;;12.60;7.20;;;28.90;99.90;;;;;;5095966;28;20483;-81
2023/09/12 09:08:54;;;;;;;17.00;7.80;;;29.10;99.90;;;;;;5097036;28;20452;-82
2023/09/12 09:11:22;;;;;;;18.97;7.30;;;29.30;99.90;;;;;;5095733;28;20493;-82
2023/09/12 09:13:49;;;;;;;19.50;7.50;;;29.20;99.90;;;;;;5095568;28;20455;-81
2023/09/12 09:16:18;;;;;;;12.77;7.40;;;29.00;99.90;;;;;;5094892;28;20483;-82
2023/09/12 09:18:52;;;;;;;30.50;8.40;;;28.70;99.90;;;;;;5095882;28;20484;-82
2023/09/12 09:21:19;;;;;;;16.97;7.53;;;28.40;99.90;;;;;;5095731;28;20467;-81
2023/09/12 09:23:47;;;;;;;17.70;8.23;;;28.60;99.90;;;;;;5093940;28;20801;-80
2023/09/12 09:26:13;;;;;;;16.97;7.17;;;28.70;99.90;;;;;;5094211;28;20508;-80
2023/09/12 09:28:41;;;;;;;20.50;7.90;;;28.90;99.90;;;;;;5096161;28;20481;-82
2023/09/12 09:31:11;;;;;;;16.67;8.07;;;28.90;99.90;;;;;;5096556;28;20479;-83
2023/09/12 09:33:39;;;;;;;30.13;8.10;;;28.80;99.90;;;;;;5094569;28;20486;-81
2023/09/12 09:36:08;;;;;;;17.40;7.60;;;28.50;99.90;;;;;;5095201;28;20469;-79
2023/09/12 09:38:35;;;;;;;18.17;7.57;;;28.70;99.90;;;;;;5092936;28;20444;-81
2023/09/12 09:41:05;;;;;;;22.67;7.50;;;28.60;99.90;;;;;;5096560;28;20494;-82
2023/09/12 09:43:33;;;;;;;16.97;7.23;;;28.60;99.90;;;;;;5095894;28;20486;-79
2023/09/12 09:46:01;;;;;;;16.67;6.90;;;28.40;99.90;;;;;;5094263;28;20507;-81
2023/09/12 09:48:28;;;;;;;19.00;7.50;;;28.60;99.90;;;;;;5091394;28;20446;-82
2023/09/12 09:51:01;;;;;;;16.27;7.50;;;28.70;99.90;;;;;;5092996;28;20451;-79
2023/09/12 09:53:28;;;;;;;15.13;7.60;;;28.80;99.90;;;;;;5094312;28;20451;-80
2023/09/12 09:56:09;;;;;;;19.30;7.60;;;28.90;99.90;;;;;;5094702;28;20486;-80
2023/09/12 09:58:36;;;;;;;19.47;7.33;;;28.80;99.90;;;;;;5094860;28;20455;-81
2023/09/12 10:01:08;;;;;;;22.23;8.37;;;29.10;99.90;;;;;;5095042;28;20463;-81
2023/09/12 10:03:37;;;;;;;17.63;7.40;;;29.40;99.90;;;;;;5094490;28;20431;-80
2023/09/12 10:06:06;;;;;;;16.43;6.73;;;29.30;99.90;;;;;;5094873;28;20513;-82
2023/09/12 10:08:34;;;;;;;13.57;7.10;;;29.30;99.90;;;;;;5096510;28;20439;-82
2023/09/12 10:11:01;;;;;;;15.73;7.33;;;29.60;99.90;;;;;;5096530;28;20497;-82
2023/09/12 10:13:32;;;;;;;18.50;7.67;;;29.80;99.90;;;;;;5096603;28;20490;-82
2023/09/12 10:16:01;;;;;;;13.03;7.33;;;29.90;99.90;;;;;;5095239;28;20440;-81
2023/09/12 10:18:32;;;;;;;26.97;7.57;;;29.70;99.90;;;;;;5091180;28;20462;-80
2023/09/12 10:21:06;;;;;;;26.03;6.70;;;29.80;99.90;;;;;;5091624;28;20479;-82
2023/09/12 10:23:41;;;;;;;18.67;7.77;;;30.20;99.90;;;;;;5095830;28;20431;-81
2023/09/12 10:26:11;;;;;;;18.83;6.90;;;30.40;99.90;;;;;;5094231;28;20483;-80
2023/09/12 10:28:40;;;;;;;15.17;6.23;;;30.60;99.90;;;;;;5093823;28;20834;-82
2023/09/12 10:31:09;;;;;;;14.90;6.40;;;30.80;99.90;;;;;;5095486;28;20459;-82
2023/09/12 10:33:37;;;;;;;27.17;6.70;;;31.00;99.90;;;;;;5095023;28;20463;-82
2023/09/12 10:36:05;;;;;;;18.70;6.67;;;30.90;99.90;;;;;;5095713;28;20451;-82
2023/09/12 10:38:36;;;;;;;27.20;7.67;;;30.90;99.90;;;;;;5094963;28;20451;-82
2023/09/12 10:41:06;;;;;;;12.30;6.50;;;30.70;99.90;;;;;;5095751;28;20763;-81
2023/09/12 10:43:35;;;;;;;19.53;6.90;;;30.80;99.90;;;;;;5093130;28;20478;-81
2023/09/12 10:46:03;;;;;;;15.43;6.93;;;30.70;99.90;;;;;;5095003;28;20486;-81
2023/09/12 10:48:30;;;;;;;22.70;6.83;;;30.50;99.90;;;;;;5094407;28;20431;-83
2023/09/12 10:51:01;;;;;;;13.30;6.30;;;30.90;99.90;;;;;;5095498;28;20467;-81
2023/09/12 10:53:28;;;;;;;12.67;6.70;;;31.10;99.90;;;;;;5094503;28;20493;-81
2023/09/12 10:56:14;;;;;;;15.83;6.97;;;31.30;99.90;;;;;;5095771;28;20455;-81
2023/09/12 10:59:14;;;;;;;26.77;6.30;;;31.60;99.90;;;;;;5096143;28;20456;-82
2023/09/12 11:01:45;;;;;;;19.67;6.97;;;31.60;99.90;;;;;;5093672;28;20482;-81
2023/09/12 11:04:33;;;;;;;19.23;6.80;;;31.20;99.90;;;;;;5095593;28;20438;-82
2023/09/12 11:07:01;;;;;;;14.10;6.77;;;30.90;99.90;;;;;;5088289;28;20558;-81
2023/09/12 11:09:28;;;;;;;24.03;6.80;;;31.20;99.90;;;;;;5093382;28;20452;-82
2023/09/12 11:12:02;;;;;;;19.60;7.00;;;31.60;99.90;;;;;;5094445;28;20451;-80
2023/09/12 11:14:30;;;;;;;12.00;7.17;;;32.00;99.90;;;;;;5095594;28;20443;-82
2023/09/12 11:17:24;;;;;;;20.83;6.70;;;32.30;99.90;;;;;;5095660;28;20436;-82
2023/09/12 11:19:53;;;;;;;18.07;7.30;;;32.50;99.90;;;;;;5093117;28;20447;-81
2023/09/12 11:22:25;;;;;;;21.60;6.90;;;32.60;99.90;;;;;;5095150;28;21015;-82
2023/09/12 11:24:52;;;;;;;19.90;6.50;;;32.30;99.90;;;;;;5094413;28;20454;-81
2023/09/12 11:27:20;;;;;;;15.47;6.50;;;32.20;99.90;;;;;;5097734;28;20473;-82
2023/09/12 11:29:47;;;;;;;18.90;7.23;;;32.40;99.90;;;;;;5100180;28;20435;-82
2023/09/12 11:32:26;;;;;;;12.77;6.90;;;32.90;99.90;;;;;;5099706;28;20900;-82
2023/09/12 11:34:53;;;;;;;18.10;6.53;;;33.00;99.90;;;;;;5098428;28;20865;-81
2023/09/12 11:37:25;;;;;;;18.40;7.30;;;32.90;99.90;;;;;;5098085;28;20427;-82
2023/09/12 11:39:53;;;;;;;19.30;6.00;;;32.50;99.90;;;;;;5100241;28;20466;-82
2023/09/12 11:42:21;;;;;;;16.80;6.93;;;32.30;99.90;;;;;;5100210;28;20478;-82
2023/09/12 11:44:50;;;;;;;23.03;7.23;;;31.90;99.90;;;;;;5099708;28;20447;-81
2023/09/12 11:47:16;;;;;;;14.20;5.97;;;31.90;99.90;;;;;;5099603;28;20491;-81
2023/09/12 11:49:43;;;;;;;14.87;6.47;;;31.40;99.90;;;;;;5099249;28;20440;-81
2023/09/12 11:52:12;;;;;;;18.83;6.60;;;31.30;99.90;;;;;;5099037;28;20451;-81
2023/09/12 11:54:41;;;;;;;16.83;6.93;;;31.40;99.90;;;;;;5099719;28;20452;-80
2023/09/12 11:57:09;;;;;;;12.80;6.50;;;31.50;99.90;;;;;;5098499;28;20435;-81
2023/09/12 11:59:38;;;;;;;22.97;6.23;;;31.70;99.90;;;;;;5099199;28;20446;-82
2023/09/12 12:02:08;;;;;;;11.20;6.20;;;31.80;99.90;;;;;;5099022;28;20486;-80
2023/09/12 12:04:35;;;;;;;14.73;5.23;;;32.10;99.90;;;;;;5098644;28;20474;-82
2023/09/12 12:07:03;;;;;;;14.60;6.97;;;32.30;99.90;;;;;;5098761;28;20487;-80
2023/09/12 12:09:31;;;;;;;20.73;6.70;;;32.60;99.90;;;;;;5098752;28;20448;-81
2023/09/12 12:12:04;;;;;;;20.23;6.50;;;32.80;99.90;;;;;;5099198;28;20455;-82
2023/09/12 12:14:34;;;;;;;16.23;6.60;;;32.90;99.90;;;;;;5099361;28;20447;-81
2023/09/12 12:17:08;;;;;;;19.23;6.63;;;32.60;99.90;;;;;;5098762;28;20956;-81
2023/09/12 12:19:34;;;;;;;14.37;6.57;;;32.30;99.90;;;;;;5098785;28;20482;-80
2023/09/12 12:22:01;;;;;;;13.40;5.47;;;31.80;99.90;;;;;;5096997;28;20493;-81
2023/09/12 12:24:37;;;;;;;19.10;6.73;;;31.40;99.90;;;;;;5096640;28;20438;-81
2023/09/12 12:27:07;;;;;;;18.80;7.50;;;31.20;99.90;;;;;;5095812;28;20474;-80
2023/09/12 12:29:34;;;;;;;14.10;7.00;;;31.00;99.90;;;;;;5095687;28;20455;-80
2023/09/12 12:32:01;;;;;;;15.80;6.17;;;31.00;99.90;;;;;;5095917;28;20474;-81
2023/09/12 12:34:28;;;;;;;14.20;6.60;;;31.00;99.90;;;;;;5097637;28;20462;-80